createdAt,value
2018-02-11T08:40:17.324Z,18.98
2018-02-11T08:41:26.564Z,18.99
2018-02-11T08:42:35.769Z,18.92
2018-02-11T08:43:44.458Z,19.04
2018-02-11T08:44:53.677Z,19.06
2018-02-11T08:46:02.364Z,19.02
2018-02-11T08:47:11.590Z,19.1
2018-02-11T08:48:20.548Z,19.06
2018-02-11T08:49:29.771Z,19
2018-02-11T08:50:38.456Z,19
2018-02-11T08:51:47.419Z,19
2018-02-11T08:52:56.906Z,19.02
2018-02-11T08:54:05.598Z,18.99
2018-02-11T08:55:14.631Z,18.98
2018-02-11T08:56:23.588Z,18.99
2018-02-11T08:57:32.278Z,18.99
2018-02-11T08:58:40.969Z,19.06
2018-02-11T08:59:50.453Z,19
2018-02-11T09:00:59.712Z,19.07
2018-02-11T09:02:08.941Z,19.06
2018-02-11T09:03:17.631Z,19.07
2018-02-11T09:04:26.585Z,19
2018-02-11T09:05:35.547Z,18.99
2018-02-11T09:06:44.235Z,18.98
2018-02-11T09:07:53.191Z,19.04
2018-02-11T09:09:01.880Z,19
2018-02-11T09:10:10.842Z,19.06
2018-02-11T09:11:19.528Z,19.02
2018-02-11T09:12:28.218Z,19.02
2018-02-11T09:13:37.440Z,18.94
2018-02-11T09:14:46.127Z,18.99
2018-02-11T09:15:54.815Z,18.99
2018-02-11T09:17:03.767Z,19
2018-02-11T09:18:12.990Z,19.04
2018-02-11T09:19:22.208Z,18.98
2018-02-11T09:20:30.900Z,18.94
2018-02-11T09:21:39.860Z,18.94
2018-02-11T09:22:49.082Z,19
2018-02-11T09:23:58.035Z,18.95
2018-02-11T09:25:06.989Z,18.78
2018-02-11T09:26:15.949Z,18.82
2018-02-11T09:27:24.906Z,18.91
2018-02-11T09:28:33.859Z,18.9
2018-02-11T09:29:42.548Z,18.88
2018-02-11T09:30:51.970Z,19.06
2018-02-11T09:32:01.457Z,19.04
2018-02-11T09:33:10.681Z,18.99
2018-02-11T09:34:19.638Z,18.94
2018-02-11T09:35:29.138Z,18.95
2018-02-11T09:36:37.831Z,18.99
2018-02-11T09:37:46.596Z,19
2018-02-11T09:38:55.551Z,18.94
2018-02-11T09:40:05.043Z,18.98
2018-02-11T09:41:14.002Z,19.06
2018-02-11T09:42:22.692Z,19.06
2018-02-11T09:43:31.384Z,18.95
2018-02-11T09:44:40.607Z,19
2018-02-11T09:45:49.563Z,19.04
2018-02-11T09:46:58.259Z,18.99
2018-02-11T09:48:07.216Z,18.92
2018-02-11T09:49:15.906Z,19.11
2018-02-11T09:50:24.863Z,19.14
2018-02-11T09:51:34.082Z,18.98
2018-02-11T09:52:43.037Z,19.11
2018-02-11T09:53:51.993Z,19.02
2018-02-11T09:55:01.484Z,19
2018-02-11T09:56:10.705Z,18.99
2018-02-11T09:57:19.994Z,19.02
2018-02-11T09:58:28.632Z,19.04
2018-02-11T09:59:37.401Z,19.02
2018-02-11T10:00:46.090Z,19.02
2018-02-11T10:01:55.306Z,18.99
2018-02-11T10:03:04.606Z,18.99
2018-02-11T10:04:13.565Z,19.06
2018-02-11T10:05:22.255Z,19.07
2018-02-11T10:06:30.943Z,19.08
2018-02-11T10:07:39.901Z,19
2018-02-11T10:08:48.592Z,18.99
2018-02-11T10:09:57.548Z,19.06
2018-02-11T10:11:06.769Z,19.04
2018-02-11T10:12:16.259Z,19.02
2018-02-11T10:13:25.476Z,19.18
2018-02-11T10:14:34.164Z,19
2018-02-11T10:15:43.122Z,19.06
2018-02-11T10:16:52.344Z,19.1
2018-02-11T10:18:01.566Z,19.11
2018-02-11T10:19:10.522Z,19.13
2018-02-11T10:20:19.474Z,19.16
2018-02-11T10:21:28.431Z,19.06
2018-02-11T10:22:37.119Z,19.07
2018-02-11T10:23:46.157Z,19.14
2018-02-11T10:24:55.113Z,19.19
2018-02-11T10:26:04.070Z,19.1
2018-02-11T10:27:13.027Z,19.08
2018-02-11T10:28:21.984Z,19.08
2018-02-11T10:29:31.221Z,19.13
2018-02-11T10:30:40.443Z,19.08
2018-02-11T10:31:49.208Z,19.08
2018-02-11T10:32:58.166Z,19.02
2018-02-11T10:34:07.124Z,19.14
2018-02-11T10:35:16.086Z,19.1
2018-02-11T10:36:24.775Z,19.11
2018-02-11T10:37:33.731Z,19.07
2018-02-11T10:38:42.420Z,19.08
2018-02-11T10:39:51.375Z,19.08
2018-02-11T10:41:00.593Z,19.18
2018-02-11T10:42:09.552Z,19.13
2018-02-11T10:43:18.776Z,19.08
2018-02-11T10:44:27.732Z,19.07
2018-02-11T10:45:36.694Z,19.1
2018-02-11T10:46:45.649Z,19.14
2018-02-11T10:47:54.604Z,19.1
2018-02-11T10:49:03.555Z,19.07
2018-02-11T10:50:12.245Z,19.1
2018-02-11T10:51:20.937Z,19.08
2018-02-11T10:52:29.890Z,19.1
2018-02-11T10:53:38.580Z,19.13
2018-02-11T10:54:47.271Z,19.1
2018-02-11T10:55:56.233Z,19.11
2018-02-11T10:57:05.453Z,19.14
2018-02-11T10:58:14.142Z,19.18
2018-02-11T10:59:23.364Z,19.14
2018-02-11T11:00:32.589Z,19.18
2018-02-11T11:01:41.279Z,19.11
2018-02-11T11:02:50.235Z,19.14
2018-02-11T11:03:59.192Z,19.18
2018-02-11T11:05:08.145Z,19.18
2018-02-11T11:06:17.096Z,19.21
2018-02-11T11:07:25.786Z,19.11
2018-02-11T11:08:34.750Z,19.21
2018-02-11T11:09:43.971Z,19.21
2018-02-11T11:10:53.193Z,19.14
2018-02-11T11:12:02.149Z,19.19
2018-02-11T11:13:11.104Z,19.19
2018-02-11T11:14:20.062Z,19.18
2018-02-11T11:15:28.752Z,19.16
2018-02-11T11:16:37.707Z,19.13
2018-02-11T11:17:46.921Z,19.18
2018-02-11T11:18:55.882Z,19.14
2018-02-11T11:20:04.845Z,19.08
2018-02-11T11:21:13.806Z,19.18
2018-02-11T11:22:22.761Z,19.11
2018-02-11T11:23:31.451Z,19.16
2018-02-11T11:24:40.671Z,19.11
2018-02-11T11:25:49.634Z,19.16
2018-02-11T11:26:58.592Z,19.11
2018-02-11T11:28:07.815Z,19.19
2018-02-11T11:29:16.506Z,19.18
2018-02-11T11:30:25.727Z,19.16
2018-02-11T11:31:34.419Z,19.25
2018-02-11T11:32:43.375Z,19.26
2018-02-11T11:33:52.329Z,19.25
2018-02-11T11:35:01.293Z,19.23
2018-02-11T11:36:09.977Z,19.16
2018-02-11T11:37:18.931Z,19.32
2018-02-11T11:38:27.886Z,19.22
2018-02-11T11:39:36.844Z,19.28
2018-02-11T11:40:45.532Z,19.21
2018-02-11T11:41:54.225Z,19.31
2018-02-11T11:43:03.444Z,19.26
2018-02-11T11:44:12.406Z,19.28
2018-02-11T11:45:21.362Z,19.28
2018-02-11T11:46:30.583Z,19.26
2018-02-11T11:47:39.273Z,19.29
2018-02-11T11:48:47.964Z,19.28
2018-02-11T11:49:56.656Z,19.28
2018-02-11T11:51:05.891Z,19.21
2018-02-11T11:52:14.578Z,19.33
2018-02-11T11:53:23.803Z,19.37
2018-02-11T11:54:33.034Z,19.33
2018-02-11T11:55:42.046Z,19.32
2018-02-11T11:56:51.001Z,19.4
2018-02-11T11:57:59.962Z,19.39
2018-02-11T11:59:09.722Z,19.4
2018-02-11T12:00:18.413Z,19.36
2018-02-11T12:01:27.105Z,19.33
2018-02-11T12:02:36.066Z,19.39
2018-02-11T12:03:45.286Z,19.36
2018-02-11T12:04:54.245Z,19.46
2018-02-11T12:06:03.734Z,19.41
2018-02-11T12:07:12.951Z,19.43
2018-02-11T12:08:21.906Z,19.48
2018-02-11T12:09:30.868Z,19.4
2018-02-11T12:10:39.824Z,19.44
2018-02-11T12:11:48.513Z,19.48
2018-02-11T12:12:57.467Z,19.37
2018-02-11T12:14:06.740Z,19.4
2018-02-11T12:15:15.702Z,19.39
2018-02-11T12:16:24.390Z,19.4
2018-02-11T12:17:33.424Z,19.39
2018-02-11T12:18:42.378Z,19.41
2018-02-11T12:19:51.337Z,19.39
2018-02-11T12:21:00.030Z,19.31
2018-02-11T12:22:09.253Z,19.33
2018-02-11T12:23:18.209Z,19.33
2018-02-11T12:24:26.908Z,19.36
2018-02-11T12:25:35.597Z,19.33
2018-02-11T12:26:44.551Z,19.39
2018-02-11T12:27:53.239Z,19.37
2018-02-11T12:29:01.928Z,19.41
2018-02-11T12:30:10.885Z,19.39
2018-02-11T12:31:19.896Z,19.43
2018-02-11T12:32:29.381Z,19.32
2018-02-11T12:33:38.071Z,19.44
2018-02-11T12:34:47.028Z,19.41
2018-02-11T12:35:55.718Z,19.47
2018-02-11T12:37:05.732Z,19.37
2018-02-11T12:38:14.425Z,19.44
2018-02-11T12:39:23.995Z,19.5
2018-02-11T12:40:32.977Z,19.5
2018-02-11T12:41:41.937Z,19.51
2018-02-11T12:42:50.892Z,19.55
2018-02-11T12:43:59.851Z,19.51
2018-02-11T12:45:08.811Z,19.5
2018-02-11T12:46:17.500Z,19.48
2018-02-11T12:47:26.191Z,19.54
2018-02-11T12:48:34.885Z,19.55
2018-02-11T12:49:43.843Z,19.5
2018-02-11T12:50:52.531Z,19.5
2018-02-11T12:52:02.020Z,19.51
2018-02-11T12:53:11.237Z,19.51
2018-02-11T12:54:20.460Z,19.46
2018-02-11T12:55:29.682Z,19.39
2018-02-11T12:56:38.370Z,19.32
2018-02-11T12:57:47.059Z,19.31
2018-02-11T12:58:55.749Z,19.36
2018-02-11T13:00:04.978Z,19.39
2018-02-11T13:01:14.469Z,19.37
2018-02-11T13:02:23.423Z,19.4
2018-02-11T13:03:32.376Z,19.36
2018-02-11T13:04:41.863Z,19.46
2018-02-11T13:05:50.554Z,19.46
2018-02-11T13:06:59.511Z,19.44
2018-02-11T13:08:09.260Z,19.47
2018-02-11T13:09:17.949Z,19.44
2018-02-11T13:10:27.175Z,19.44
2018-02-11T13:11:35.865Z,19.54
2018-02-11T13:12:45.507Z,19.51
2018-02-11T13:13:54.999Z,19.51
2018-02-11T13:15:03.953Z,19.51
2018-02-11T13:16:12.909Z,19.47
2018-02-11T13:17:22.130Z,19.44
2018-02-11T13:18:31.085Z,19.48
2018-02-11T13:19:39.776Z,19.55
2018-02-11T13:20:48.465Z,19.41
2018-02-11T13:21:57.417Z,19.41
2018-02-11T13:23:06.638Z,19.46
2018-02-11T13:24:15.333Z,19.47
2018-02-11T13:25:24.018Z,19.5
2018-02-11T13:26:33.241Z,19.46
2018-02-11T13:27:42.199Z,19.44
2018-02-11T13:28:51.153Z,19.54
2018-02-11T13:29:59.845Z,19.5
2018-02-11T13:31:09.331Z,19.5
2018-02-11T13:32:18.285Z,19.48
2018-02-11T13:33:27.243Z,19.54
2018-02-11T13:34:36.482Z,19.55
2018-02-11T13:35:45.716Z,19.55
2018-02-11T13:36:54.931Z,19.51
2018-02-11T13:38:04.156Z,19.5
2018-02-11T13:39:13.643Z,19.58
2018-02-11T13:40:22.331Z,19.58
2018-02-11T13:41:31.287Z,19.59
2018-02-11T13:42:40.239Z,19.55
2018-02-11T13:43:48.927Z,19.56
2018-02-11T13:44:58.155Z,19.54
2018-02-11T13:46:07.644Z,19.54
2018-02-11T13:47:16.412Z,19.58
2018-02-11T13:48:25.639Z,19.61
2018-02-11T13:49:34.326Z,19.59
2018-02-11T13:50:43.280Z,19.59
2018-02-11T13:51:51.970Z,19.58
2018-02-11T13:53:01.458Z,19.54
2018-02-11T13:54:10.152Z,19.58
2018-02-11T13:55:19.114Z,19.51
2018-02-11T13:56:28.069Z,19.55
2018-02-11T13:57:37.600Z,19.44
2018-02-11T13:58:46.293Z,19.5
2018-02-11T13:59:55.520Z,19.48
2018-02-11T14:01:05.020Z,19.54
2018-02-11T14:02:13.710Z,19.56
2018-02-11T14:03:22.669Z,19.55
2018-02-11T14:04:31.627Z,19.59
2018-02-11T14:05:40.583Z,19.54
2018-02-11T14:06:49.275Z,19.56
2018-02-11T14:07:58.231Z,19.59
2018-02-11T14:09:07.736Z,19.56
2018-02-11T14:10:16.425Z,19.62
2018-02-11T14:11:25.652Z,19.61
2018-02-11T14:12:34.339Z,19.66
2018-02-11T14:13:43.307Z,19.58
2018-02-11T14:14:52.267Z,19.55
2018-02-11T14:16:01.228Z,19.47
2018-02-11T14:17:10.183Z,19.33
2018-02-11T14:18:19.139Z,19.25
2018-02-11T14:19:27.827Z,19.16
2018-02-11T14:20:36.782Z,19.16
2018-02-11T14:21:46.052Z,19.19
2018-02-11T14:22:54.745Z,19.23
2018-02-11T14:24:03.705Z,19.31
2018-02-11T14:25:12.924Z,19.37
2018-02-11T14:26:21.881Z,19.31
2018-02-11T14:27:30.566Z,19.37
2018-02-11T14:28:39.522Z,19.39
2018-02-11T14:29:48.208Z,19.37
2018-02-11T14:30:57.427Z,19.46
2018-02-11T14:32:06.123Z,19.47
2018-02-11T14:33:14.812Z,19.33
2018-02-11T14:34:23.773Z,19.44
2018-02-11T14:35:32.731Z,19.47
2018-02-11T14:36:41.422Z,19.46
2018-02-11T14:37:50.401Z,19.44
2018-02-11T14:38:59.094Z,19.46
2018-02-11T14:40:07.786Z,19.5
2018-02-11T14:41:16.745Z,19.5
2018-02-11T14:42:26.073Z,19.46
2018-02-11T14:43:35.072Z,19.5
2018-02-11T14:44:44.028Z,19.46
2018-02-11T14:45:52.981Z,19.5
2018-02-11T14:47:01.670Z,19.46
2018-02-11T14:48:10.628Z,19.48
2018-02-11T14:49:19.577Z,19.5
2018-02-11T14:50:28.798Z,19.5
2018-02-11T14:51:37.754Z,19.41
2018-02-11T14:52:46.710Z,19.43
2018-02-11T14:53:55.398Z,19.5
2018-02-11T14:55:04.091Z,19.44
2018-02-11T14:56:13.048Z,19.46
2018-02-11T14:57:21.740Z,19.48
2018-02-11T14:58:30.698Z,19.47
2018-02-11T14:59:39.388Z,19.48
2018-02-11T15:00:48.341Z,19.46
2018-02-11T15:01:57.369Z,19.47
2018-02-11T15:03:06.059Z,19.46
2018-02-11T15:04:15.282Z,19.46
2018-02-11T15:05:24.241Z,19.43
2018-02-11T15:06:32.927Z,19.46
2018-02-11T15:07:41.883Z,19.44
2018-02-11T15:08:50.847Z,19.46
2018-02-11T15:09:59.803Z,19.51
2018-02-11T15:11:09.287Z,19.5
2018-02-11T15:12:18.243Z,19.51
2018-02-11T15:13:27.200Z,19.47
2018-02-11T15:14:36.156Z,19.44
2018-02-11T15:15:44.846Z,19.5
2018-02-11T15:16:53.537Z,19.51
2018-02-11T15:18:03.022Z,19.48
2018-02-11T15:19:12.247Z,19.43
2018-02-11T15:20:21.202Z,19.43
2018-02-11T15:21:30.692Z,19.46
2018-02-11T15:22:39.912Z,19.48
2018-02-11T15:23:48.604Z,19.46
2018-02-11T15:24:57.295Z,19.43
2018-02-11T15:26:06.259Z,19.46
2018-02-11T15:27:14.952Z,19.5
2018-02-11T15:28:24.441Z,19.48
2018-02-11T15:29:33.169Z,19.46
2018-02-11T15:30:42.929Z,19.51
2018-02-11T15:31:51.887Z,19.5
2018-02-11T15:33:00.577Z,19.51
2018-02-11T15:34:09.534Z,19.56
2018-02-11T15:35:18.769Z,19.58
2018-02-11T15:36:27.727Z,19.58
2018-02-11T15:37:36.684Z,19.54
2018-02-11T15:38:45.375Z,19.62
2018-02-11T15:39:54.594Z,19.56
2018-02-11T15:41:03.552Z,19.61
2018-02-11T15:42:12.511Z,19.56
2018-02-11T15:43:21.734Z,19.59
2018-02-11T15:44:30.423Z,19.61
2018-02-11T15:45:39.114Z,19.54
2018-02-11T15:46:47.807Z,19.5
2018-02-11T15:47:56.764Z,19.55
2018-02-11T15:49:06.518Z,19.48
2018-02-11T15:50:15.789Z,19.44
2018-02-11T15:51:24.697Z,19.55
2018-02-11T15:52:33.654Z,19.54
2018-02-11T15:53:42.613Z,19.5
2018-02-11T15:54:51.835Z,19.5
2018-02-11T15:56:01.054Z,19.47
2018-02-11T15:57:10.282Z,19.47
2018-02-11T15:58:19.505Z,19.47
2018-02-11T15:59:28.724Z,19.51
2018-02-11T16:00:38.217Z,19.5
2018-02-11T16:01:47.437Z,19.5
2018-02-11T16:02:56.392Z,19.47
2018-02-11T16:04:05.346Z,19.51
2018-02-11T16:05:14.300Z,19.55
2018-02-11T16:06:22.990Z,19.54
2018-02-11T16:07:32.219Z,19.5
2018-02-11T16:08:40.910Z,19.51
2018-02-11T16:09:50.142Z,19.5
2018-02-11T16:10:58.826Z,19.5
2018-02-11T16:12:08.055Z,19.48
2018-02-11T16:13:17.278Z,19.47
2018-02-11T16:14:26.235Z,19.58
2018-02-11T16:15:34.927Z,19.5
2018-02-11T16:16:44.144Z,19.51
2018-02-11T16:17:53.098Z,19.51
2018-02-11T16:19:01.790Z,19.47
2018-02-11T16:20:11.013Z,19.5
2018-02-11T16:21:20.237Z,19.5
2018-02-11T16:22:29.457Z,19.55
2018-02-11T16:23:38.679Z,19.55
2018-02-11T16:24:47.369Z,19.47
2018-02-11T16:25:56.059Z,19.5
2018-02-11T16:27:05.330Z,19.46
2018-02-11T16:28:14.033Z,19.47
2018-02-11T16:29:22.776Z,19.44
2018-02-11T16:30:31.462Z,19.5
2018-02-11T16:31:40.420Z,19.55
2018-02-11T16:32:49.638Z,19.44
2018-02-11T16:33:58.596Z,19.5
2018-02-11T16:35:07.556Z,19.47
2018-02-11T16:36:16.250Z,19.5
2018-02-11T16:37:24.938Z,19.48
2018-02-11T16:38:33.953Z,19.58
2018-02-11T16:39:42.908Z,19.54
2018-02-11T16:40:51.871Z,19.48
2018-02-11T16:42:00.565Z,19.5
2018-02-11T16:43:09.799Z,19.51
2018-02-11T16:44:18.751Z,19.54
2018-02-11T16:45:28.243Z,19.46
2018-02-11T16:46:36.933Z,19.47
2018-02-11T16:47:46.158Z,19.47
2018-02-11T16:48:55.114Z,19.51
2018-02-11T16:50:04.071Z,19.55
2018-02-11T16:51:13.305Z,19.56
2018-02-11T16:52:22.437Z,19.55
2018-02-11T16:53:31.401Z,19.48
2018-02-11T16:54:40.090Z,19.48
2018-02-11T16:55:49.047Z,19.54
2018-02-11T16:56:58.267Z,19.55
2018-02-11T16:58:07.758Z,19.51
2018-02-11T16:59:16.725Z,19.54
2018-02-11T17:00:25.951Z,19.46
2018-02-11T17:01:34.906Z,19.47
2018-02-11T17:02:43.859Z,19.46
2018-02-11T17:03:53.619Z,19.48
2018-02-11T17:05:02.308Z,19.51
2018-02-11T17:06:11.265Z,19.51
2018-02-11T17:07:20.487Z,19.55
2018-02-11T17:08:29.178Z,19.51
2018-02-11T17:09:38.134Z,19.5
2018-02-11T17:10:47.356Z,19.48
2018-02-11T17:11:56.850Z,19.46
2018-02-11T17:13:05.835Z,19.51
2018-02-11T17:14:14.489Z,19.5
2018-02-11T17:15:23.453Z,19.47
2018-02-11T17:16:32.141Z,19.55
2018-02-11T17:17:41.371Z,19.56
2018-02-11T17:18:50.339Z,19.47
2018-02-11T17:19:59.295Z,19.54
2018-02-11T17:21:08.253Z,19.58
2018-02-11T17:22:17.214Z,19.56
2018-02-11T17:23:26.172Z,19.61
2018-02-11T17:24:35.408Z,19.59
2018-02-11T17:25:44.674Z,19.59
2018-02-11T17:26:53.378Z,19.56
2018-02-11T17:28:02.066Z,19.51
2018-02-11T17:29:10.761Z,19.46
2018-02-11T17:30:19.448Z,19.55
2018-02-11T17:31:28.137Z,19.48
2018-02-11T17:32:37.095Z,19.47
2018-02-11T17:33:45.786Z,19.46
2018-02-11T17:34:54.741Z,19.36
2018-02-11T17:36:03.970Z,19.28
2018-02-11T17:37:12.926Z,19.21
2018-02-11T17:38:22.156Z,19.06
2018-02-11T17:39:31.117Z,19.1
2018-02-11T17:40:40.070Z,19.06
2018-02-11T17:41:49.032Z,18.94
2018-02-11T17:42:57.990Z,18.91
2018-02-11T17:44:07.214Z,18.81
2018-02-11T17:45:15.909Z,18.82
2018-02-11T17:46:24.867Z,18.75
2018-02-11T17:47:33.827Z,18.75
2018-02-11T17:48:43.320Z,18.75
2018-02-11T17:49:52.275Z,18.67
2018-02-11T17:51:01.231Z,18.65
2018-02-11T17:52:10.194Z,18.63
2018-02-11T17:53:19.415Z,18.63
2018-02-11T17:54:28.372Z,18.65
2018-02-11T17:55:37.071Z,18.67
2018-02-11T17:56:45.754Z,18.7
2018-02-11T17:57:54.709Z,18.78
2018-02-11T17:59:03.669Z,18.78
2018-02-11T18:00:12.366Z,18.81
2018-02-11T18:01:21.369Z,18.95
2018-02-11T18:02:30.030Z,19.02
2018-02-11T18:03:38.720Z,19.02
2018-02-11T18:04:47.675Z,18.92
2018-02-11T18:05:56.369Z,19.02
2018-02-11T18:07:05.060Z,19.02
2018-02-11T18:08:14.286Z,19.1
2018-02-11T18:09:23.836Z,19.11
2018-02-11T18:10:32.796Z,19.07
2018-02-11T18:11:41.489Z,19.25
2018-02-11T18:12:50.180Z,19.16
2018-02-11T18:13:59.134Z,19.11
2018-02-11T18:15:08.374Z,19.18
2018-02-11T18:16:17.066Z,19.22
2018-02-11T18:17:26.029Z,19.22
2018-02-11T18:18:35.517Z,19.21
2018-02-11T18:19:44.739Z,19.25
2018-02-11T18:20:53.722Z,19.26
2018-02-11T18:22:02.950Z,19.28
2018-02-11T18:23:12.166Z,19.28
2018-02-11T18:24:21.122Z,19.26
2018-02-11T18:25:29.819Z,19.29
2018-02-11T18:26:39.043Z,19.28
2018-02-11T18:27:48.268Z,19.33
2018-02-11T18:28:56.959Z,19.33
2018-02-11T18:30:06.183Z,19.36
2018-02-11T18:31:15.140Z,19.31
2018-02-11T18:32:23.828Z,19.33
2018-02-11T18:33:33.318Z,19.28
2018-02-11T18:34:42.279Z,19.31
2018-02-11T18:35:50.984Z,19.28
2018-02-11T18:36:59.946Z,19.28
2018-02-11T18:38:09.437Z,19.29
2018-02-11T18:39:18.926Z,19.36
2018-02-11T18:40:28.143Z,19.26
2018-02-11T18:41:37.100Z,19.31
2018-02-11T18:42:45.793Z,19.22
2018-02-11T18:43:54.750Z,19.36
2018-02-11T18:45:03.972Z,19.37
2018-02-11T18:46:13.191Z,19.33
2018-02-11T18:47:22.147Z,19.37
2018-02-11T18:48:31.106Z,19.43
2018-02-11T18:49:40.329Z,19.46
2018-02-11T18:50:49.288Z,19.37
2018-02-11T18:51:58.509Z,19.47
2018-02-11T18:53:07.466Z,19.44
2018-02-11T18:54:16.692Z,19.46
2018-02-11T18:55:25.918Z,19.46
2018-02-11T18:56:34.610Z,19.5
2018-02-11T18:57:43.299Z,19.43
2018-02-11T18:58:51.993Z,19.48
2018-02-11T19:00:00.684Z,19.44
2018-02-11T19:01:09.924Z,19.46
2018-02-11T19:02:18.617Z,19.48
2018-02-11T19:03:27.310Z,19.47
2018-02-11T19:04:35.999Z,19.56
2018-02-11T19:05:44.958Z,19.51
2018-02-11T19:06:53.651Z,19.55
2018-02-11T19:08:02.610Z,19.5
2018-02-11T19:09:11.300Z,19.47
2018-02-11T19:10:19.994Z,19.51
2018-02-11T19:11:29.487Z,19.54
2018-02-11T19:12:38.719Z,19.48
2018-02-11T19:13:47.409Z,19.51
2018-02-11T19:14:56.369Z,19.51
2018-02-11T19:16:05.598Z,19.51
2018-02-11T19:17:14.286Z,19.55
2018-02-11T19:18:23.526Z,19.51
2018-02-11T19:19:32.207Z,19.51
2018-02-11T19:20:41.162Z,19.48
2018-02-11T19:21:50.119Z,19.55
2018-02-11T19:22:58.813Z,19.47
2018-02-11T19:24:07.503Z,19.51
2018-02-11T19:25:16.194Z,19.48
2018-02-11T19:26:25.427Z,19.54
2018-02-11T19:27:34.116Z,19.5
2018-02-11T19:28:43.074Z,19.55
2018-02-11T19:29:52.461Z,19.51
2018-02-11T19:31:01.420Z,19.54
2018-02-11T19:32:10.650Z,19.5
2018-02-11T19:33:19.614Z,19.51
2018-02-11T19:34:28.572Z,19.5
2018-02-11T19:35:37.792Z,19.47
2018-02-11T19:36:46.481Z,19.47
2018-02-11T19:37:55.702Z,19.5
2018-02-11T19:39:04.392Z,19.55
2018-02-11T19:40:13.613Z,19.56
2018-02-11T19:41:22.307Z,19.5
2018-02-11T19:42:31.527Z,19.51
2018-02-11T19:43:40.217Z,19.54
2018-02-11T19:44:49.173Z,19.51
2018-02-11T19:45:57.867Z,19.48
2018-02-11T19:47:06.824Z,19.48
2018-02-11T19:48:16.574Z,19.47
2018-02-11T19:49:25.805Z,19.5
2018-02-11T19:50:35.028Z,19.56
2018-02-11T19:51:43.726Z,19.51
2018-02-11T19:52:52.955Z,19.51
2018-02-11T19:54:01.913Z,19.47
2018-02-11T19:55:10.876Z,19.5
2018-02-11T19:56:20.462Z,19.47
2018-02-11T19:57:29.687Z,19.54
2018-02-11T19:58:38.913Z,19.55
2018-02-11T19:59:47.870Z,19.5
2018-02-11T20:00:56.828Z,19.47
2018-02-11T20:02:06.054Z,19.56
2018-02-11T20:03:15.809Z,19.56
2018-02-11T20:04:24.764Z,19.54
2018-02-11T20:05:33.725Z,19.47
2018-02-11T20:06:42.950Z,19.47
2018-02-11T20:07:51.644Z,19.47
2018-02-11T20:09:00.600Z,19.54
2018-02-11T20:10:09.557Z,19.51
2018-02-11T20:11:18.788Z,19.56
2018-02-11T20:12:27.745Z,19.54
2018-02-11T20:13:36.436Z,19.51
2018-02-11T20:14:45.424Z,19.5
2018-02-11T20:15:54.115Z,19.55
2018-02-11T20:17:02.806Z,19.55
2018-02-11T20:18:12.036Z,19.51
2018-02-11T20:19:20.728Z,19.55
2018-02-11T20:20:29.420Z,19.47
2018-02-11T20:21:38.375Z,19.56
2018-02-11T20:22:47.331Z,19.47
2018-02-11T20:23:56.022Z,19.55
2018-02-11T20:25:04.993Z,19.51
2018-02-11T20:26:14.219Z,19.55
2018-02-11T20:27:22.908Z,19.5
2018-02-11T20:28:31.611Z,19.51
2018-02-11T20:29:40.570Z,19.58
2018-02-11T20:30:49.525Z,19.55
2018-02-11T20:31:59.023Z,19.54
2018-02-11T20:33:07.717Z,19.59
2018-02-11T20:34:16.410Z,19.65
2018-02-11T20:35:25.107Z,19.65
2018-02-11T20:36:34.065Z,19.59
2018-02-11T20:37:43.021Z,19.59
2018-02-11T20:38:52.506Z,19.63
2018-02-11T20:40:01.465Z,19.68
2018-02-11T20:41:10.155Z,19.69
2018-02-11T20:42:19.112Z,19.73
2018-02-11T20:43:28.378Z,19.69
2018-02-11T20:44:37.071Z,19.69
2018-02-11T20:45:45.758Z,19.68
2018-02-11T20:46:54.715Z,19.73
2018-02-11T20:48:04.210Z,19.69
2018-02-11T20:49:13.429Z,19.62
2018-02-11T20:50:22.652Z,19.61
2018-02-11T20:51:31.343Z,19.63
2018-02-11T20:52:40.292Z,19.65
2018-02-11T20:53:49.245Z,19.63
2018-02-11T20:54:58.998Z,19.58
2018-02-11T20:56:07.691Z,19.56
2018-02-11T20:57:16.914Z,19.63
2018-02-11T20:58:26.131Z,19.56
2018-02-11T20:59:35.354Z,19.51
2018-02-11T21:00:44.043Z,19.51
2018-02-11T21:01:52.734Z,19.58
2018-02-11T21:03:01.953Z,19.54
2018-02-11T21:04:11.171Z,19.58
2018-02-11T21:05:20.129Z,19.56
2018-02-11T21:06:28.819Z,19.58
2018-02-11T21:07:37.775Z,19.55
2018-02-11T21:08:46.736Z,19.56
2018-02-11T21:09:55.691Z,19.59
2018-02-11T21:11:05.181Z,19.59
2018-02-11T21:12:14.400Z,19.59
2018-02-11T21:13:23.090Z,19.59
2018-02-11T21:14:32.046Z,19.58
2018-02-11T21:15:41.279Z,19.54
2018-02-11T21:16:50.238Z,19.59
2018-02-11T21:17:59.194Z,19.59
2018-02-11T21:19:07.922Z,19.58
2018-02-11T21:20:16.580Z,19.54
2018-02-11T21:21:25.801Z,19.55
2018-02-11T21:22:34.492Z,19.56
2018-02-11T21:23:43.716Z,19.56
2018-02-11T21:24:52.674Z,19.56
2018-02-11T21:26:01.361Z,19.5
2018-02-11T21:27:10.636Z,19.5
2018-02-11T21:28:19.917Z,19.41
2018-02-11T21:29:28.607Z,19.5
2018-02-11T21:30:38.096Z,19.37
2018-02-11T21:31:46.787Z,19.41
2018-02-11T21:32:55.480Z,19.44
2018-02-11T21:34:04.437Z,19.4
2018-02-11T21:35:13.397Z,19.39
2018-02-11T21:36:22.087Z,19.39
2018-02-11T21:37:31.343Z,19.37
2018-02-11T21:38:39.996Z,19.26
2018-02-11T21:39:48.954Z,19.36
2018-02-11T21:40:57.917Z,19.32
2018-02-11T21:42:07.143Z,19.39
2018-02-11T21:43:16.363Z,19.44
2018-02-11T21:44:25.320Z,19.39
2018-02-11T21:45:34.546Z,19.36
2018-02-11T21:46:43.236Z,19.33
2018-02-11T21:47:52.194Z,19.44
2018-02-11T21:49:01.151Z,19.39
2018-02-11T21:50:10.372Z,19.5
2018-02-11T21:51:19.646Z,19.44
2018-02-11T21:52:28.873Z,19.47
2018-02-11T21:53:37.562Z,19.5
2018-02-11T21:54:46.514Z,19.46
2018-02-11T21:55:55.728Z,19.46
2018-02-11T21:57:04.685Z,19.46
2018-02-11T21:58:14.173Z,19.46
2018-02-11T21:59:23.130Z,19.44
2018-02-11T22:00:32.087Z,19.48
2018-02-11T22:01:41.040Z,19.51
2018-02-11T22:02:49.732Z,19.46
2018-02-11T22:03:58.951Z,19.43
2018-02-11T22:05:08.183Z,19.5
2018-02-11T22:06:17.142Z,19.47
2018-02-11T22:07:25.833Z,19.5
2018-02-11T22:08:34.785Z,19.5
2018-02-11T22:09:43.476Z,19.51
2018-02-11T22:10:52.432Z,19.47
2018-02-11T22:12:01.386Z,19.44
2018-02-11T22:13:10.615Z,19.39
2018-02-11T22:14:19.308Z,19.39
2018-02-11T22:15:27.999Z,19.33
2018-02-11T22:16:36.687Z,19.39
2018-02-11T22:17:45.913Z,19.4
2018-02-11T22:18:54.872Z,19.36
2018-02-11T22:20:03.824Z,19.4
2018-02-11T22:21:12.779Z,19.41
2018-02-11T22:22:22.004Z,19.44
2018-02-11T22:23:30.693Z,19.33
2018-02-11T22:24:39.645Z,19.41
2018-02-11T22:25:48.605Z,19.5
2018-02-11T22:26:57.825Z,19.5
2018-02-11T22:28:06.780Z,19.46
2018-02-11T22:29:15.999Z,19.46
2018-02-11T22:30:24.953Z,19.4
2018-02-11T22:31:34.438Z,19.44
2018-02-11T22:32:43.654Z,19.48
2018-02-11T22:33:52.934Z,19.54
2018-02-11T22:35:02.153Z,19.46
2018-02-11T22:36:11.420Z,19.47
2018-02-11T22:37:20.373Z,19.4
2018-02-11T22:38:29.398Z,19.39
2018-02-11T22:39:38.305Z,19.46
2018-02-11T22:40:47.261Z,19.41
2018-02-11T22:41:56.482Z,19.47
2018-02-11T22:43:05.172Z,19.44
2018-02-11T22:44:14.130Z,19.46
2018-02-11T22:45:23.085Z,19.46
2018-02-11T22:46:32.040Z,19.46
2018-02-11T22:47:40.727Z,19.41
2018-02-11T22:48:49.685Z,19.48
2018-02-11T22:49:58.375Z,19.41
2018-02-11T22:51:07.596Z,19.46
2018-02-11T22:52:16.289Z,19.44
2018-02-11T22:53:24.973Z,19.46
2018-02-11T22:54:33.930Z,19.48
2018-02-11T22:55:42.619Z,19.51
2018-02-11T22:56:51.573Z,19.46
2018-02-11T22:58:00.798Z,19.44
2018-02-11T22:59:09.751Z,19.46
2018-02-11T23:00:18.440Z,19.51
2018-02-11T23:01:27.133Z,19.51
2018-02-11T23:02:36.087Z,19.5
2018-02-11T23:03:45.036Z,19.51
2018-02-11T23:04:53.993Z,19.48
2018-02-11T23:06:02.952Z,19.51
2018-02-11T23:07:11.912Z,19.5
2018-02-11T23:08:21.430Z,19.5
2018-02-11T23:09:30.384Z,19.47
2018-02-11T23:10:39.606Z,19.56
2018-02-11T23:11:48.591Z,19.54
2018-02-11T23:12:57.549Z,19.55
2018-02-11T23:14:06.767Z,19.51
2018-02-11T23:15:15.457Z,19.55
2018-02-11T23:16:24.673Z,19.51
2018-02-11T23:17:33.892Z,19.51
2018-02-11T23:18:43.116Z,19.55
2018-02-11T23:19:52.074Z,19.55
2018-02-11T23:21:01.294Z,19.5
2018-02-11T23:22:10.535Z,19.54
2018-02-11T23:23:19.224Z,19.55
2018-02-11T23:24:28.706Z,19.48
2018-02-11T23:25:37.930Z,19.48
2018-02-11T23:26:47.151Z,19.47
2018-02-11T23:27:56.640Z,19.51
2018-02-11T23:29:05.328Z,19.5
2018-02-11T23:30:14.287Z,19.5
2018-02-11T23:31:22.976Z,19.54
2018-02-11T23:32:31.672Z,19.5